sensor_id;sensor_type;location;lat;lon;timestamp;P1;durP1;ratioP1;P2;durP2;ratioP2
41323;SDS011;27073;51.128;4.220;2022-10-16T00:01:37;2.17;;;1.00;;
41323;SDS011;27073;51.128;4.220;2022-10-16T00:04:03;1.52;;;0.65;;
41323;SDS011;27073;51.128;4.220;2022-10-16T00:06:29;1.85;;;0.85;;
41323;SDS011;27073;51.128;4.220;2022-10-16T00:08:56;1.85;;;0.90;;
41323;SDS011;27073;51.128;4.220;2022-10-16T00:11:23;1.80;;;0.80;;
41323;SDS011;27073;51.128;4.220;2022-10-16T00:13:53;1.85;;;0.98;;
41323;SDS011;27073;51.128;4.220;2022-10-16T00:16:21;1.88;;;0.90;;
41323;SDS011;27073;51.128;4.220;2022-10-16T00:18:46;1.95;;;1.25;;
41323;SDS011;27073;51.128;4.220;2022-10-16T00:21:16;1.60;;;0.73;;
41323;SDS011;27073;51.128;4.220;2022-10-16T00:23:46;3.17;;;0.77;;
41323;SDS011;27073;51.128;4.220;2022-10-16T00:26:16;2.65;;;0.80;;
41323;SDS011;27073;51.128;4.220;2022-10-16T00:28:44;2.15;;;0.70;;
41323;SDS011;27073;51.128;4.220;2022-10-16T00:31:12;2.53;;;1.33;;
41323;SDS011;27073;51.128;4.220;2022-10-16T00:33:39;2.33;;;0.90;;
41323;SDS011;27073;51.128;4.220;2022-10-16T00:36:06;2.05;;;0.77;;
41323;SDS011;27073;51.128;4.220;2022-10-16T00:38:33;2.50;;;0.80;;
41323;SDS011;27073;51.128;4.220;2022-10-16T00:40:59;3.63;;;0.70;;
41323;SDS011;27073;51.128;4.220;2022-10-16T00:43:44;1.60;;;0.85;;
41323;SDS011;27073;51.128;4.220;2022-10-16T00:46:25;2.22;;;0.80;;
41323;SDS011;27073;51.128;4.220;2022-10-16T00:51:30;3.08;;;0.70;;
41323;SDS011;27073;51.128;4.220;2022-10-16T00:53:59;2.53;;;0.60;;
41323;SDS011;27073;51.128;4.220;2022-10-16T00:56:26;3.55;;;1.17;;
41323;SDS011;27073;51.128;4.220;2022-10-16T00:58:52;1.63;;;0.68;;
41323;SDS011;27073;51.128;4.220;2022-10-16T01:01:18;1.45;;;0.60;;
41323;SDS011;27073;51.128;4.220;2022-10-16T01:03:43;1.42;;;0.63;;
41323;SDS011;27073;51.128;4.220;2022-10-16T01:06:21;2.75;;;0.60;;
41323;SDS011;27073;51.128;4.220;2022-10-16T01:09:19;5.68;;;0.65;;
41323;SDS011;27073;51.128;4.220;2022-10-16T01:14:54;1.58;;;0.60;;
41323;SDS011;27073;51.128;4.220;2022-10-16T01:17:57;2.83;;;0.90;;
41323;SDS011;27073;51.128;4.220;2022-10-16T01:20:37;2.22;;;0.82;;
41323;SDS011;27073;51.128;4.220;2022-10-16T01:29:02;3.17;;;0.70;;
41323;SDS011;27073;51.128;4.220;2022-10-16T01:31:47;1.52;;;0.73;;
41323;SDS011;27073;51.128;4.220;2022-10-16T01:34:33;5.97;;;0.75;;
41323;SDS011;27073;51.128;4.220;2022-10-16T01:37:07;2.47;;;0.90;;
41323;SDS011;27073;51.128;4.220;2022-10-16T01:39:39;4.80;;;0.80;;
41323;SDS011;27073;51.128;4.220;2022-10-16T01:42:30;4.55;;;0.70;;
41323;SDS011;27073;51.128;4.220;2022-10-16T01:44:56;2.95;;;0.75;;
41323;SDS011;27073;51.128;4.220;2022-10-16T01:47:24;2.38;;;0.73;;
41323;SDS011;27073;51.128;4.220;2022-10-16T01:49:51;3.60;;;0.63;;
41323;SDS011;27073;51.128;4.220;2022-10-16T01:52:20;2.75;;;0.50;;
41323;SDS011;27073;51.128;4.220;2022-10-16T01:54:49;2.58;;;0.60;;
41323;SDS011;27073;51.128;4.220;2022-10-16T01:57:17;2.83;;;0.70;;
41323;SDS011;27073;51.128;4.220;2022-10-16T01:59:50;2.17;;;0.80;;
41323;SDS011;27073;51.128;4.220;2022-10-16T02:02:19;1.33;;;0.70;;
41323;SDS011;27073;51.128;4.220;2022-10-16T02:04:53;2.33;;;0.70;;
41323;SDS011;27073;51.128;4.220;2022-10-16T02:07:23;1.80;;;1.02;;
41323;SDS011;27073;51.128;4.220;2022-10-16T02:09:49;4.03;;;0.80;;
41323;SDS011;27073;51.128;4.220;2022-10-16T02:12:16;2.00;;;1.05;;
41323;SDS011;27073;51.128;4.220;2022-10-16T02:14:47;4.15;;;0.82;;
41323;SDS011;27073;51.128;4.220;2022-10-16T02:17:14;3.50;;;0.80;;
41323;SDS011;27073;51.128;4.220;2022-10-16T02:19:41;2.08;;;0.70;;
41323;SDS011;27073;51.128;4.220;2022-10-16T02:22:09;1.60;;;0.63;;
41323;SDS011;27073;51.128;4.220;2022-10-16T02:27:35;2.55;;;0.70;;
41323;SDS011;27073;51.128;4.220;2022-10-16T02:30:14;2.00;;;0.75;;
41323;SDS011;27073;51.128;4.220;2022-10-16T02:32:45;2.58;;;0.82;;
41323;SDS011;27073;51.128;4.220;2022-10-16T02:35:15;1.88;;;0.75;;
41323;SDS011;27073;51.128;4.220;2022-10-16T02:37:43;2.17;;;0.80;;
41323;SDS011;27073;51.128;4.220;2022-10-16T02:40:10;3.17;;;1.00;;
41323;SDS011;27073;51.128;4.220;2022-10-16T02:42:37;4.10;;;1.00;;
41323;SDS011;27073;51.128;4.220;2022-10-16T02:45:05;1.85;;;0.85;;
41323;SDS011;27073;51.128;4.220;2022-10-16T02:47:32;2.55;;;1.17;;
41323;SDS011;27073;51.128;4.220;2022-10-16T02:49:58;2.67;;;1.30;;
41323;SDS011;27073;51.128;4.220;2022-10-16T02:52:24;3.30;;;1.02;;
41323;SDS011;27073;51.128;4.220;2022-10-16T02:54:50;3.10;;;1.10;;
41323;SDS011;27073;51.128;4.220;2022-10-16T02:57:16;2.65;;;1.15;;
41323;SDS011;27073;51.128;4.220;2022-10-16T02:59:43;2.78;;;1.00;;
41323;SDS011;27073;51.128;4.220;2022-10-16T03:02:09;1.40;;;0.63;;
41323;SDS011;27073;51.128;4.220;2022-10-16T03:04:35;3.03;;;0.90;;
41323;SDS011;27073;51.128;4.220;2022-10-16T03:07:00;3.58;;;1.05;;
41323;SDS011;27073;51.128;4.220;2022-10-16T03:09:26;2.05;;;0.82;;
41323;SDS011;27073;51.128;4.220;2022-10-16T03:11:52;3.58;;;1.30;;
41323;SDS011;27073;51.128;4.220;2022-10-16T03:14:18;2.50;;;1.00;;
41323;SDS011;27073;51.128;4.220;2022-10-16T03:16:43;3.72;;;1.08;;
41323;SDS011;27073;51.128;4.220;2022-10-16T03:19:09;2.58;;;1.20;;
41323;SDS011;27073;51.128;4.220;2022-10-16T03:21:35;3.20;;;1.05;;
41323;SDS011;27073;51.128;4.220;2022-10-16T03:24:01;3.40;;;1.08;;
41323;SDS011;27073;51.128;4.220;2022-10-16T03:26:27;3.42;;;1.02;;
41323;SDS011;27073;51.128;4.220;2022-10-16T03:28:52;3.83;;;1.20;;
41323;SDS011;27073;51.128;4.220;2022-10-16T03:31:18;5.03;;;1.92;;
41323;SDS011;27073;51.128;4.220;2022-10-16T03:33:44;3.85;;;1.00;;
41323;SDS011;27073;51.128;4.220;2022-10-16T03:36:09;3.35;;;1.33;;
41323;SDS011;27073;51.128;4.220;2022-10-16T03:38:35;2.72;;;0.90;;
41323;SDS011;27073;51.128;4.220;2022-10-16T03:41:01;4.10;;;1.20;;
41323;SDS011;27073;51.128;4.220;2022-10-16T03:43:27;2.92;;;1.33;;
41323;SDS011;27073;51.128;4.220;2022-10-16T03:45:52;2.85;;;1.35;;
41323;SDS011;27073;51.128;4.220;2022-10-16T03:48:19;7.40;;;2.05;;
41323;SDS011;27073;51.128;4.220;2022-10-16T03:50:45;2.65;;;1.05;;
41323;SDS011;27073;51.128;4.220;2022-10-16T03:53:13;3.63;;;1.45;;
41323;SDS011;27073;51.128;4.220;2022-10-16T03:55:41;4.53;;;1.38;;
41323;SDS011;27073;51.128;4.220;2022-10-16T03:58:07;2.85;;;1.20;;
41323;SDS011;27073;51.128;4.220;2022-10-16T04:00:33;5.47;;;2.53;;
41323;SDS011;27073;51.128;4.220;2022-10-16T04:02:59;3.47;;;1.25;;
41323;SDS011;27073;51.128;4.220;2022-10-16T04:05:25;3.53;;;1.67;;
41323;SDS011;27073;51.128;4.220;2022-10-16T04:07:51;4.28;;;1.48;;
41323;SDS011;27073;51.128;4.220;2022-10-16T04:10:17;2.88;;;1.42;;
41323;SDS011;27073;51.128;4.220;2022-10-16T04:12:44;3.78;;;1.30;;
41323;SDS011;27073;51.128;4.220;2022-10-16T04:15:09;3.45;;;1.13;;
41323;SDS011;27073;51.128;4.220;2022-10-16T04:17:35;3.63;;;1.35;;
41323;SDS011;27073;51.128;4.220;2022-10-16T04:20:01;3.40;;;1.50;;
41323;SDS011;27073;51.128;4.220;2022-10-16T04:22:28;5.50;;;1.70;;
41323;SDS011;27073;51.128;4.220;2022-10-16T04:24:54;5.43;;;1.60;;
41323;SDS011;27073;51.128;4.220;2022-10-16T04:27:19;3.15;;;1.27;;
41323;SDS011;27073;51.128;4.220;2022-10-16T04:29:45;3.40;;;1.67;;
41323;SDS011;27073;51.128;4.220;2022-10-16T04:32:11;4.32;;;1.70;;
41323;SDS011;27073;51.128;4.220;2022-10-16T04:34:38;4.65;;;1.90;;
41323;SDS011;27073;51.128;4.220;2022-10-16T04:37:05;8.05;;;1.60;;
41323;SDS011;27073;51.128;4.220;2022-10-16T04:39:31;5.25;;;1.88;;
41323;SDS011;27073;51.128;4.220;2022-10-16T04:41:56;4.00;;;1.50;;
41323;SDS011;27073;51.128;4.220;2022-10-16T04:44:22;3.28;;;1.70;;
41323;SDS011;27073;51.128;4.220;2022-10-16T04:46:50;4.22;;;1.80;;
41323;SDS011;27073;51.128;4.220;2022-10-16T04:49:16;4.00;;;1.40;;
41323;SDS011;27073;51.128;4.220;2022-10-16T04:51:42;5.35;;;1.70;;
41323;SDS011;27073;51.128;4.220;2022-10-16T04:54:08;4.93;;;1.70;;
41323;SDS011;27073;51.128;4.220;2022-10-16T04:56:34;3.25;;;1.40;;
41323;SDS011;27073;51.128;4.220;2022-10-16T04:59:08;6.03;;;1.95;;
41323;SDS011;27073;51.128;4.220;2022-10-16T05:01:34;3.80;;;1.52;;
41323;SDS011;27073;51.128;4.220;2022-10-16T05:04:00;3.28;;;1.38;;
41323;SDS011;27073;51.128;4.220;2022-10-16T05:06:26;4.22;;;1.40;;
41323;SDS011;27073;51.128;4.220;2022-10-16T05:08:52;5.40;;;1.50;;
41323;SDS011;27073;51.128;4.220;2022-10-16T05:11:17;5.93;;;1.40;;
41323;SDS011;27073;51.128;4.220;2022-10-16T05:13:43;3.38;;;1.63;;
41323;SDS011;27073;51.128;4.220;2022-10-16T05:16:09;3.63;;;1.58;;
41323;SDS011;27073;51.128;4.220;2022-10-16T05:18:34;5.28;;;1.40;;
41323;SDS011;27073;51.128;4.220;2022-10-16T05:21:00;4.35;;;1.50;;
41323;SDS011;27073;51.128;4.220;2022-10-16T05:23:26;4.90;;;1.80;;
41323;SDS011;27073;51.128;4.220;2022-10-16T05:25:53;5.28;;;2.25;;
41323;SDS011;27073;51.128;4.220;2022-10-16T05:28:20;9.88;;;1.85;;
41323;SDS011;27073;51.128;4.220;2022-10-16T05:30:46;5.50;;;1.63;;
41323;SDS011;27073;51.128;4.220;2022-10-16T05:33:12;4.40;;;1.70;;
41323;SDS011;27073;51.128;4.220;2022-10-16T05:35:38;5.18;;;1.73;;
41323;SDS011;27073;51.128;4.220;2022-10-16T05:38:04;8.25;;;1.90;;
41323;SDS011;27073;51.128;4.220;2022-10-16T05:40:29;2.67;;;1.38;;
41323;SDS011;27073;51.128;4.220;2022-10-16T05:42:55;2.95;;;1.50;;
41323;SDS011;27073;51.128;4.220;2022-10-16T05:45:21;7.40;;;1.85;;
41323;SDS011;27073;51.128;4.220;2022-10-16T05:47:47;5.25;;;1.95;;
41323;SDS011;27073;51.128;4.220;2022-10-16T05:50:13;3.75;;;1.40;;
41323;SDS011;27073;51.128;4.220;2022-10-16T05:52:39;5.85;;;1.63;;
41323;SDS011;27073;51.128;4.220;2022-10-16T05:55:05;5.10;;;1.25;;
41323;SDS011;27073;51.128;4.220;2022-10-16T05:57:31;5.05;;;1.50;;
41323;SDS011;27073;51.128;4.220;2022-10-16T05:59:57;7.72;;;1.42;;
41323;SDS011;27073;51.128;4.220;2022-10-16T06:02:22;2.65;;;1.17;;
41323;SDS011;27073;51.128;4.220;2022-10-16T06:04:48;4.50;;;1.50;;
41323;SDS011;27073;51.128;4.220;2022-10-16T06:07:14;3.22;;;1.27;;
41323;SDS011;27073;51.128;4.220;2022-10-16T06:09:39;4.13;;;1.50;;
41323;SDS011;27073;51.128;4.220;2022-10-16T06:12:05;4.50;;;1.60;;
41323;SDS011;27073;51.128;4.220;2022-10-16T06:14:31;5.45;;;1.77;;
41323;SDS011;27073;51.128;4.220;2022-10-16T06:16:57;3.67;;;1.50;;
41323;SDS011;27073;51.128;4.220;2022-10-16T06:19:23;5.68;;;1.77;;
41323;SDS011;27073;51.128;4.220;2022-10-16T06:21:49;6.00;;;2.30;;
41323;SDS011;27073;51.128;4.220;2022-10-16T06:24:14;5.57;;;1.50;;
41323;SDS011;27073;51.128;4.220;2022-10-16T06:26:40;5.07;;;1.70;;
41323;SDS011;27073;51.128;4.220;2022-10-16T06:29:07;4.93;;;1.52;;
41323;SDS011;27073;51.128;4.220;2022-10-16T06:31:33;6.80;;;1.88;;
41323;SDS011;27073;51.128;4.220;2022-10-16T06:33:59;3.70;;;1.65;;
41323;SDS011;27073;51.128;4.220;2022-10-16T06:36:25;4.47;;;1.45;;
41323;SDS011;27073;51.128;4.220;2022-10-16T06:38:51;5.70;;;1.80;;
41323;SDS011;27073;51.128;4.220;2022-10-16T06:41:18;3.60;;;1.50;;
41323;SDS011;27073;51.128;4.220;2022-10-16T06:43:46;6.53;;;2.28;;
41323;SDS011;27073;51.128;4.220;2022-10-16T06:46:13;2.83;;;1.80;;
41323;SDS011;27073;51.128;4.220;2022-10-16T06:48:41;4.10;;;1.55;;
41323;SDS011;27073;51.128;4.220;2022-10-16T06:51:11;5.90;;;1.70;;
41323;SDS011;27073;51.128;4.220;2022-10-16T06:53:39;4.30;;;1.48;;
41323;SDS011;27073;51.128;4.220;2022-10-16T06:58:35;5.70;;;1.73;;
41323;SDS011;27073;51.128;4.220;2022-10-16T07:01:00;7.97;;;1.73;;
41323;SDS011;27073;51.128;4.220;2022-10-16T07:03:26;4.82;;;1.75;;
41323;SDS011;27073;51.128;4.220;2022-10-16T07:05:52;3.10;;;1.55;;
41323;SDS011;27073;51.128;4.220;2022-10-16T07:08:18;3.67;;;1.50;;
41323;SDS011;27073;51.128;4.220;2022-10-16T07:10:43;4.72;;;2.03;;
41323;SDS011;27073;51.128;4.220;2022-10-16T07:13:09;6.43;;;1.80;;
41323;SDS011;27073;51.128;4.220;2022-10-16T07:15:38;3.72;;;1.50;;
41323;SDS011;27073;51.128;4.220;2022-10-16T07:18:04;4.90;;;1.55;;
41323;SDS011;27073;51.128;4.220;2022-10-16T07:20:29;8.50;;;1.65;;
41323;SDS011;27073;51.128;4.220;2022-10-16T07:22:55;5.68;;;1.95;;
41323;SDS011;27073;51.128;4.220;2022-10-16T07:25:21;5.53;;;2.00;;
41323;SDS011;27073;51.128;4.220;2022-10-16T07:27:46;3.45;;;1.60;;
41323;SDS011;27073;51.128;4.220;2022-10-16T07:30:12;5.43;;;2.22;;
41323;SDS011;27073;51.128;4.220;2022-10-16T07:32:38;5.95;;;1.80;;
41323;SDS011;27073;51.128;4.220;2022-10-16T07:35:04;4.45;;;1.70;;
41323;SDS011;27073;51.128;4.220;2022-10-16T07:37:30;7.25;;;1.65;;
41323;SDS011;27073;51.128;4.220;2022-10-16T07:39:56;2.15;;;1.27;;
41323;SDS011;27073;51.128;4.220;2022-10-16T07:42:22;5.97;;;1.75;;
41323;SDS011;27073;51.128;4.220;2022-10-16T07:44:48;4.97;;;1.77;;
41323;SDS011;27073;51.128;4.220;2022-10-16T07:47:14;3.53;;;1.63;;
41323;SDS011;27073;51.128;4.220;2022-10-16T07:49:39;6.30;;;2.03;;
41323;SDS011;27073;51.128;4.220;2022-10-16T07:52:05;8.35;;;1.88;;
41323;SDS011;27073;51.128;4.220;2022-10-16T07:54:31;4.25;;;1.55;;
41323;SDS011;27073;51.128;4.220;2022-10-16T07:56:57;5.13;;;1.50;;
41323;SDS011;27073;51.128;4.220;2022-10-16T07:59:22;3.28;;;1.30;;
41323;SDS011;27073;51.128;4.220;2022-10-16T08:01:51;4.15;;;1.35;;
41323;SDS011;27073;51.128;4.220;2022-10-16T08:04:17;4.40;;;1.50;;
41323;SDS011;27073;51.128;4.220;2022-10-16T08:06:42;4.95;;;1.80;;
41323;SDS011;27073;51.128;4.220;2022-10-16T08:09:08;4.22;;;1.55;;
41323;SDS011;27073;51.128;4.220;2022-10-16T08:11:34;5.82;;;2.28;;
41323;SDS011;27073;51.128;4.220;2022-10-16T08:14:00;7.88;;;1.20;;
41323;SDS011;27073;51.128;4.220;2022-10-16T08:16:26;3.63;;;1.50;;
41323;SDS011;27073;51.128;4.220;2022-10-16T08:18:51;6.03;;;1.55;;
41323;SDS011;27073;51.128;4.220;2022-10-16T08:21:19;5.28;;;1.40;;
41323;SDS011;27073;51.128;4.220;2022-10-16T08:23:46;3.80;;;1.20;;
41323;SDS011;27073;51.128;4.220;2022-10-16T08:26:12;5.93;;;1.40;;
41323;SDS011;27073;51.128;4.220;2022-10-16T08:28:38;3.97;;;1.33;;
41323;SDS011;27073;51.128;4.220;2022-10-16T08:31:07;5.20;;;1.92;;
41323;SDS011;27073;51.128;4.220;2022-10-16T08:33:38;5.45;;;1.80;;
41323;SDS011;27073;51.128;4.220;2022-10-16T08:36:06;4.28;;;1.20;;
41323;SDS011;27073;51.128;4.220;2022-10-16T08:38:32;6.78;;;1.27;;
41323;SDS011;27073;51.128;4.220;2022-10-16T08:48:55;5.20;;;1.50;;
41323;SDS011;27073;51.128;4.220;2022-10-16T08:51:26;6.10;;;1.88;;
41323;SDS011;27073;51.128;4.220;2022-10-16T08:53:58;6.05;;;1.30;;
41323;SDS011;27073;51.128;4.220;2022-10-16T08:56:29;4.22;;;1.38;;
41323;SDS011;27073;51.128;4.220;2022-10-16T08:58:54;5.40;;;1.42;;
41323;SDS011;27073;51.128;4.220;2022-10-16T09:01:22;6.65;;;1.60;;
41323;SDS011;27073;51.128;4.220;2022-10-16T09:06:54;5.75;;;1.50;;
41323;SDS011;27073;51.128;4.220;2022-10-16T09:20:57;5.07;;;1.60;;
41323;SDS011;27073;51.128;4.220;2022-10-16T09:23:44;6.07;;;1.50;;
41323;SDS011;27073;51.128;4.220;2022-10-16T09:26:12;7.00;;;1.45;;
41323;SDS011;27073;51.128;4.220;2022-10-16T09:28:40;5.10;;;1.33;;
41323;SDS011;27073;51.128;4.220;2022-10-16T09:31:10;8.32;;;1.45;;
41323;SDS011;27073;51.128;4.220;2022-10-16T09:33:43;6.13;;;1.10;;
41323;SDS011;27073;51.128;4.220;2022-10-16T09:36:12;5.18;;;1.20;;
41323;SDS011;27073;51.128;4.220;2022-10-16T09:38:39;9.88;;;1.98;;
41323;SDS011;27073;51.128;4.220;2022-10-16T09:43:46;5.03;;;1.13;;
41323;SDS011;27073;51.128;4.220;2022-10-16T09:48:50;4.03;;;1.23;;
41323;SDS011;27073;51.128;4.220;2022-10-16T09:53:47;3.55;;;0.93;;
41323;SDS011;27073;51.128;4.220;2022-10-16T09:56:21;7.30;;;1.25;;
41323;SDS011;27073;51.128;4.220;2022-10-16T09:58:53;6.55;;;1.45;;
41323;SDS011;27073;51.128;4.220;2022-10-16T10:01:29;5.15;;;0.98;;
41323;SDS011;27073;51.128;4.220;2022-10-16T10:04:00;5.40;;;1.77;;
41323;SDS011;27073;51.128;4.220;2022-10-16T10:06:29;8.50;;;1.20;;
41323;SDS011;27073;51.128;4.220;2022-10-16T10:09:02;10.30;;;1.70;;
41323;SDS011;27073;51.128;4.220;2022-10-16T10:11:40;4.20;;;1.38;;
41323;SDS011;27073;51.128;4.220;2022-10-16T10:14:19;6.80;;;1.25;;
41323;SDS011;27073;51.128;4.220;2022-10-16T10:38:39;7.95;;;1.10;;
41323;SDS011;27073;51.128;4.220;2022-10-16T10:47:35;5.28;;;1.25;;
41323;SDS011;27073;51.128;4.220;2022-10-16T10:55:31;10.65;;;1.30;;
41323;SDS011;27073;51.128;4.220;2022-10-16T10:58:10;7.45;;;1.80;;
41323;SDS011;27073;51.128;4.220;2022-10-16T11:00:50;8.00;;;1.73;;
41323;SDS011;27073;51.128;4.220;2022-10-16T11:11:35;11.45;;;1.92;;
41323;SDS011;27073;51.128;4.220;2022-10-16T11:16:44;9.43;;;1.88;;
41323;SDS011;27073;51.128;4.220;2022-10-16T11:19:35;9.63;;;1.98;;
41323;SDS011;27073;51.128;4.220;2022-10-16T11:25:02;8.60;;;1.85;;
41323;SDS011;27073;51.128;4.220;2022-10-16T11:27:54;5.35;;;1.42;;
41323;SDS011;27073;51.128;4.220;2022-10-16T11:30:44;8.93;;;1.90;;
41323;SDS011;27073;51.128;4.220;2022-10-16T11:33:54;7.43;;;1.52;;
41323;SDS011;27073;51.128;4.220;2022-10-16T11:44:25;12.20;;;1.35;;
41323;SDS011;27073;51.128;4.220;2022-10-16T11:47:13;7.35;;;1.67;;
41323;SDS011;27073;51.128;4.220;2022-10-16T11:49:57;6.55;;;1.15;;
41323;SDS011;27073;51.128;4.220;2022-10-16T11:55:44;7.40;;;1.38;;
41323;SDS011;27073;51.128;4.220;2022-10-16T11:58:27;7.88;;;1.38;;
41323;SDS011;27073;51.128;4.220;2022-10-16T12:08:59;5.22;;;1.15;;
41323;SDS011;27073;51.128;4.220;2022-10-16T12:16:38;5.35;;;1.23;;
41323;SDS011;27073;51.128;4.220;2022-10-16T12:19:20;7.55;;;1.17;;
41323;SDS011;27073;51.128;4.220;2022-10-16T12:21:49;5.50;;;1.40;;
41323;SDS011;27073;51.128;4.220;2022-10-16T12:24:35;3.78;;;1.20;;
41323;SDS011;27073;51.128;4.220;2022-10-16T12:27:04;6.95;;;1.17;;
41323;SDS011;27073;51.128;4.220;2022-10-16T12:29:33;6.00;;;1.13;;
41323;SDS011;27073;51.128;4.220;2022-10-16T12:32:04;5.13;;;1.30;;
41323;SDS011;27073;51.128;4.220;2022-10-16T12:34:47;5.45;;;1.48;;
41323;SDS011;27073;51.128;4.220;2022-10-16T12:37:18;5.15;;;1.25;;
41323;SDS011;27073;51.128;4.220;2022-10-16T12:39:45;6.18;;;1.00;;
41323;SDS011;27073;51.128;4.220;2022-10-16T12:44:55;4.88;;;1.05;;
41323;SDS011;27073;51.128;4.220;2022-10-16T12:49:55;3.50;;;0.85;;
41323;SDS011;27073;51.128;4.220;2022-10-16T12:52:27;5.50;;;0.90;;
41323;SDS011;27073;51.128;4.220;2022-10-16T12:55:00;3.67;;;1.00;;
41323;SDS011;27073;51.128;4.220;2022-10-16T12:57:35;4.22;;;0.93;;
41323;SDS011;27073;51.128;4.220;2022-10-16T13:08:45;6.20;;;1.10;;
41323;SDS011;27073;51.128;4.220;2022-10-16T13:17:08;5.68;;;1.00;;
41323;SDS011;27073;51.128;4.220;2022-10-16T13:23:09;7.68;;;2.75;;
41323;SDS011;27073;51.128;4.220;2022-10-16T13:25:56;4.05;;;1.17;;
41323;SDS011;27073;51.128;4.220;2022-10-16T13:28:28;5.18;;;0.90;;
41323;SDS011;27073;51.128;4.220;2022-10-16T13:30:57;7.50;;;1.10;;
41323;SDS011;27073;51.128;4.220;2022-10-16T13:33:38;3.50;;;0.95;;
41323;SDS011;27073;51.128;4.220;2022-10-16T13:36:06;4.32;;;0.90;;
41323;SDS011;27073;51.128;4.220;2022-10-16T13:38:35;4.50;;;0.98;;
41323;SDS011;27073;51.128;4.220;2022-10-16T13:41:02;4.07;;;0.82;;
41323;SDS011;27073;51.128;4.220;2022-10-16T13:43:36;3.88;;;0.63;;
41323;SDS011;27073;51.128;4.220;2022-10-16T13:46:12;4.90;;;0.80;;
41323;SDS011;27073;51.128;4.220;2022-10-16T13:48:40;4.20;;;1.00;;
41323;SDS011;27073;51.128;4.220;2022-10-16T13:51:16;3.75;;;0.80;;
41323;SDS011;27073;51.128;4.220;2022-10-16T13:53:44;4.22;;;0.60;;
41323;SDS011;27073;51.128;4.220;2022-10-16T13:56:11;4.28;;;0.80;;
41323;SDS011;27073;51.128;4.220;2022-10-16T13:58:39;4.43;;;0.75;;
41323;SDS011;27073;51.128;4.220;2022-10-16T14:01:13;5.82;;;0.95;;
41323;SDS011;27073;51.128;4.220;2022-10-16T14:03:42;3.92;;;0.50;;
41323;SDS011;27073;51.128;4.220;2022-10-16T14:06:16;3.45;;;0.57;;
41323;SDS011;27073;51.128;4.220;2022-10-16T14:08:59;3.47;;;0.75;;
41323;SDS011;27073;51.128;4.220;2022-10-16T14:11:30;4.18;;;0.82;;
41323;SDS011;27073;51.128;4.220;2022-10-16T14:13:56;3.50;;;0.50;;
41323;SDS011;27073;51.128;4.220;2022-10-16T14:16:23;3.55;;;0.75;;
41323;SDS011;27073;51.128;4.220;2022-10-16T14:18:57;3.65;;;0.68;;
41323;SDS011;27073;51.128;4.220;2022-10-16T14:21:29;2.92;;;0.50;;
41323;SDS011;27073;51.128;4.220;2022-10-16T14:23:55;3.50;;;0.80;;
41323;SDS011;27073;51.128;4.220;2022-10-16T14:26:22;4.93;;;0.88;;
41323;SDS011;27073;51.128;4.220;2022-10-16T14:29:00;4.47;;;0.88;;
41323;SDS011;27073;51.128;4.220;2022-10-16T14:31:37;4.15;;;1.10;;
41323;SDS011;27073;51.128;4.220;2022-10-16T14:34:05;5.18;;;0.73;;
41323;SDS011;27073;51.128;4.220;2022-10-16T14:36:49;2.95;;;0.77;;
41323;SDS011;27073;51.128;4.220;2022-10-16T14:39:22;2.25;;;0.60;;
41323;SDS011;27073;51.128;4.220;2022-10-16T14:41:52;2.38;;;0.60;;
41323;SDS011;27073;51.128;4.220;2022-10-16T14:44:23;3.92;;;0.65;;
41323;SDS011;27073;51.128;4.220;2022-10-16T14:46:53;2.75;;;0.70;;
41323;SDS011;27073;51.128;4.220;2022-10-16T14:49:19;5.55;;;0.90;;
41323;SDS011;27073;51.128;4.220;2022-10-16T14:51:46;5.53;;;0.98;;
41323;SDS011;27073;51.128;4.220;2022-10-16T14:54:13;4.13;;;0.63;;
41323;SDS011;27073;51.128;4.220;2022-10-16T14:56:45;2.63;;;0.80;;
41323;SDS011;27073;51.128;4.220;2022-10-16T14:59:14;5.07;;;0.80;;
41323;SDS011;27073;51.128;4.220;2022-10-16T15:01:44;4.70;;;1.20;;
41323;SDS011;27073;51.128;4.220;2022-10-16T15:04:11;3.95;;;0.88;;
41323;SDS011;27073;51.128;4.220;2022-10-16T15:06:37;4.40;;;1.10;;
41323;SDS011;27073;51.128;4.220;2022-10-16T15:09:03;2.25;;;0.55;;
41323;SDS011;27073;51.128;4.220;2022-10-16T15:11:29;2.70;;;1.02;;
41323;SDS011;27073;51.128;4.220;2022-10-16T15:13:57;3.13;;;0.88;;
41323;SDS011;27073;51.128;4.220;2022-10-16T15:16:23;4.18;;;1.35;;
41323;SDS011;27073;51.128;4.220;2022-10-16T15:18:49;6.18;;;1.63;;
41323;SDS011;27073;51.128;4.220;2022-10-16T15:23:52;5.38;;;1.42;;
41323;SDS011;27073;51.128;4.220;2022-10-16T15:26:17;4.07;;;1.10;;
41323;SDS011;27073;51.128;4.220;2022-10-16T15:28:43;3.03;;;1.10;;
41323;SDS011;27073;51.128;4.220;2022-10-16T15:31:09;3.10;;;0.70;;
41323;SDS011;27073;51.128;4.220;2022-10-16T15:33:35;4.90;;;1.70;;
41323;SDS011;27073;51.128;4.220;2022-10-16T15:36:01;4.43;;;1.40;;
41323;SDS011;27073;51.128;4.220;2022-10-16T15:38:27;4.55;;;1.27;;
41323;SDS011;27073;51.128;4.220;2022-10-16T15:40:54;6.78;;;1.40;;
41323;SDS011;27073;51.128;4.220;2022-10-16T15:43:20;3.75;;;1.20;;
41323;SDS011;27073;51.128;4.220;2022-10-16T15:48:27;3.83;;;1.23;;
41323;SDS011;27073;51.128;4.220;2022-10-16T15:50:53;6.32;;;1.23;;
41323;SDS011;27073;51.128;4.220;2022-10-16T15:53:19;5.05;;;2.03;;
41323;SDS011;27073;51.128;4.220;2022-10-16T15:55:45;8.43;;;1.08;;
41323;SDS011;27073;51.128;4.220;2022-10-16T15:58:10;5.20;;;1.73;;
41323;SDS011;27073;51.128;4.220;2022-10-16T16:00:36;5.30;;;2.10;;
41323;SDS011;27073;51.128;4.220;2022-10-16T16:03:02;5.57;;;1.90;;
41323;SDS011;27073;51.128;4.220;2022-10-16T16:05:28;7.00;;;2.17;;
41323;SDS011;27073;51.128;4.220;2022-10-16T16:07:54;6.55;;;1.88;;
41323;SDS011;27073;51.128;4.220;2022-10-16T16:10:20;6.32;;;1.40;;
41323;SDS011;27073;51.128;4.220;2022-10-16T16:12:49;5.50;;;1.50;;
41323;SDS011;27073;51.128;4.220;2022-10-16T16:15:17;5.10;;;1.50;;
41323;SDS011;27073;51.128;4.220;2022-10-16T16:17:46;5.07;;;1.33;;
41323;SDS011;27073;51.128;4.220;2022-10-16T16:20:12;6.45;;;1.40;;
41323;SDS011;27073;51.128;4.220;2022-10-16T16:22:38;5.72;;;1.83;;
41323;SDS011;27073;51.128;4.220;2022-10-16T16:25:03;5.38;;;1.35;;
41323;SDS011;27073;51.128;4.220;2022-10-16T16:27:29;5.50;;;1.60;;
41323;SDS011;27073;51.128;4.220;2022-10-16T16:29:58;4.25;;;1.35;;
41323;SDS011;27073;51.128;4.220;2022-10-16T16:32:24;4.72;;;1.30;;
41323;SDS011;27073;51.128;4.220;2022-10-16T16:34:50;5.20;;;1.60;;
41323;SDS011;27073;51.128;4.220;2022-10-16T16:37:16;4.32;;;1.40;;
41323;SDS011;27073;51.128;4.220;2022-10-16T16:39:42;3.20;;;1.30;;
41323;SDS011;27073;51.128;4.220;2022-10-16T16:42:08;3.78;;;1.20;;
41323;SDS011;27073;51.128;4.220;2022-10-16T16:44:35;6.40;;;1.80;;
41323;SDS011;27073;51.128;4.220;2022-10-16T16:47:02;4.72;;;1.75;;
41323;SDS011;27073;51.128;4.220;2022-10-16T16:49:29;3.83;;;1.25;;
41323;SDS011;27073;51.128;4.220;2022-10-16T16:51:54;4.95;;;1.60;;
41323;SDS011;27073;51.128;4.220;2022-10-16T16:54:20;6.93;;;1.50;;
41323;SDS011;27073;51.128;4.220;2022-10-16T16:56:46;5.47;;;1.95;;
41323;SDS011;27073;51.128;4.220;2022-10-16T16:59:18;7.60;;;2.00;;
41323;SDS011;27073;51.128;4.220;2022-10-16T17:01:47;4.03;;;2.05;;
41323;SDS011;27073;51.128;4.220;2022-10-16T17:04:13;10.10;;;2.35;;
41323;SDS011;27073;51.128;4.220;2022-10-16T17:06:40;7.32;;;2.20;;
41323;SDS011;27073;51.128;4.220;2022-10-16T17:09:06;6.45;;;2.55;;
41323;SDS011;27073;51.128;4.220;2022-10-16T17:11:33;7.18;;;2.28;;
41323;SDS011;27073;51.128;4.220;2022-10-16T17:13:59;6.60;;;2.58;;
41323;SDS011;27073;51.128;4.220;2022-10-16T17:16:30;5.32;;;2.25;;
41323;SDS011;27073;51.128;4.220;2022-10-16T17:18:59;7.47;;;3.13;;
41323;SDS011;27073;51.128;4.220;2022-10-16T17:21:28;7.65;;;3.80;;
41323;SDS011;27073;51.128;4.220;2022-10-16T17:23:55;7.63;;;3.65;;
41323;SDS011;27073;51.128;4.220;2022-10-16T17:26:22;8.85;;;3.92;;